sensor_id;sensor_type;location;lat;lon;timestamp;temperature;humidity
32698;DHT22;19087;51.062;3.754;2023-05-07T00:00:59;18.10;99.90
32698;DHT22;19087;51.062;3.754;2023-05-07T00:03:25;18.20;99.90
32698;DHT22;19087;51.062;3.754;2023-05-07T00:05:52;18.20;99.90
32698;DHT22;19087;51.062;3.754;2023-05-07T00:08:18;18.20;99.90
32698;DHT22;19087;51.062;3.754;2023-05-07T00:10:44;18.30;99.90
32698;DHT22;19087;51.062;3.754;2023-05-07T00:13:11;18.20;99.90
32698;DHT22;19087;51.062;3.754;2023-05-07T00:15:37;18.10;99.90
32698;DHT22;19087;51.062;3.754;2023-05-07T00:18:03;18.10;99.90
32698;DHT22;19087;51.062;3.754;2023-05-07T00:20:29;18.20;99.90
32698;DHT22;19087;51.062;3.754;2023-05-07T00:22:55;18.20;99.90
32698;DHT22;19087;51.062;3.754;2023-05-07T00:25:21;18.10;99.90
32698;DHT22;19087;51.062;3.754;2023-05-07T00:27:47;18.10;99.90
32698;DHT22;19087;51.062;3.754;2023-05-07T00:30:13;18.00;99.90
32698;DHT22;19087;51.062;3.754;2023-05-07T00:32:40;18.00;99.90
32698;DHT22;19087;51.062;3.754;2023-05-07T00:35:06;17.80;99.90
32698;DHT22;19087;51.062;3.754;2023-05-07T00:37:32;17.80;99.90
32698;DHT22;19087;51.062;3.754;2023-05-07T00:39:59;17.80;99.90
32698;DHT22;19087;51.062;3.754;2023-05-07T00:42:25;17.80;99.90
32698;DHT22;19087;51.062;3.754;2023-05-07T00:44:51;17.90;99.90
32698;DHT22;19087;51.062;3.754;2023-05-07T00:47:17;17.80;99.90
32698;DHT22;19087;51.062;3.754;2023-05-07T00:49:44;17.80;99.90
32698;DHT22;19087;51.062;3.754;2023-05-07T00:52:14;17.80;99.90
32698;DHT22;19087;51.062;3.754;2023-05-07T00:54:41;18.10;99.90
32698;DHT22;19087;51.062;3.754;2023-05-07T00:57:09;18.10;99.90
32698;DHT22;19087;51.062;3.754;2023-05-07T00:59:36;17.90;99.90
32698;DHT22;19087;51.062;3.754;2023-05-07T01:02:02;17.70;99.90
32698;DHT22;19087;51.062;3.754;2023-05-07T01:04:28;17.60;99.90
32698;DHT22;19087;51.062;3.754;2023-05-07T01:06:55;17.50;99.90
32698;DHT22;19087;51.062;3.754;2023-05-07T01:09:23;17.40;99.90
32698;DHT22;19087;51.062;3.754;2023-05-07T01:11:50;17.40;99.90
32698;DHT22;19087;51.062;3.754;2023-05-07T01:14:19;17.40;99.90
32698;DHT22;19087;51.062;3.754;2023-05-07T01:16:46;17.40;99.90
32698;DHT22;19087;51.062;3.754;2023-05-07T01:19:14;17.40;99.90
32698;DHT22;19087;51.062;3.754;2023-05-07T01:21:46;17.40;99.90
32698;DHT22;19087;51.062;3.754;2023-05-07T01:24:13;17.50;99.90
32698;DHT22;19087;51.062;3.754;2023-05-07T01:26:39;17.50;99.90
32698;DHT22;19087;51.062;3.754;2023-05-07T01:29:06;17.40;99.90
32698;DHT22;19087;51.062;3.754;2023-05-07T01:31:34;17.30;99.90
32698;DHT22;19087;51.062;3.754;2023-05-07T01:34:02;17.20;99.90
32698;DHT22;19087;51.062;3.754;2023-05-07T01:36:29;17.10;99.90
32698;DHT22;19087;51.062;3.754;2023-05-07T01:38:57;17.00;99.90
32698;DHT22;19087;51.062;3.754;2023-05-07T01:41:27;17.00;99.90
32698;DHT22;19087;51.062;3.754;2023-05-07T01:43:54;16.90;99.90
32698;DHT22;19087;51.062;3.754;2023-05-07T01:46:23;16.90;99.90
32698;DHT22;19087;51.062;3.754;2023-05-07T01:48:50;17.00;99.90
32698;DHT22;19087;51.062;3.754;2023-05-07T01:51:16;17.00;99.90
32698;DHT22;19087;51.062;3.754;2023-05-07T01:53:48;16.90;99.90
32698;DHT22;19087;51.062;3.754;2023-05-07T01:56:18;17.00;99.90
32698;DHT22;19087;51.062;3.754;2023-05-07T01:58:45;17.00;99.90
32698;DHT22;19087;51.062;3.754;2023-05-07T02:01:12;17.00;99.90
32698;DHT22;19087;51.062;3.754;2023-05-07T02:03:38;17.00;99.90
32698;DHT22;19087;51.062;3.754;2023-05-07T02:06:04;17.00;99.90
32698;DHT22;19087;51.062;3.754;2023-05-07T02:08:30;17.10;99.90
32698;DHT22;19087;51.062;3.754;2023-05-07T02:10:56;17.00;99.90
32698;DHT22;19087;51.062;3.754;2023-05-07T02:13:26;17.10;99.90
32698;DHT22;19087;51.062;3.754;2023-05-07T02:15:52;17.10;99.90
32698;DHT22;19087;51.062;3.754;2023-05-07T02:18:19;17.10;99.90
32698;DHT22;19087;51.062;3.754;2023-05-07T02:20:45;17.00;99.90
32698;DHT22;19087;51.062;3.754;2023-05-07T02:23:12;16.90;99.90
32698;DHT22;19087;51.062;3.754;2023-05-07T02:25:38;16.90;99.90
32698;DHT22;19087;51.062;3.754;2023-05-07T02:28:03;17.00;99.90
32698;DHT22;19087;51.062;3.754;2023-05-07T02:30:29;17.10;99.90
32698;DHT22;19087;51.062;3.754;2023-05-07T02:32:58;17.20;99.90
32698;DHT22;19087;51.062;3.754;2023-05-07T02:35:24;17.20;99.90
32698;DHT22;19087;51.062;3.754;2023-05-07T02:37:52;17.00;99.90
32698;DHT22;19087;51.062;3.754;2023-05-07T02:40:19;16.90;99.90
32698;DHT22;19087;51.062;3.754;2023-05-07T02:42:46;16.80;99.90
32698;DHT22;19087;51.062;3.754;2023-05-07T02:45:12;16.80;99.90
32698;DHT22;19087;51.062;3.754;2023-05-07T02:47:40;16.70;99.90
32698;DHT22;19087;51.062;3.754;2023-05-07T02:50:07;16.70;99.90
32698;DHT22;19087;51.062;3.754;2023-05-07T02:52:35;16.80;99.90
32698;DHT22;19087;51.062;3.754;2023-05-07T02:55:01;16.80;99.90
32698;DHT22;19087;51.062;3.754;2023-05-07T02:57:29;16.70;99.90
32698;DHT22;19087;51.062;3.754;2023-05-07T02:59:54;16.70;99.90
32698;DHT22;19087;51.062;3.754;2023-05-07T03:02:21;16.80;99.90
32698;DHT22;19087;51.062;3.754;2023-05-07T03:04:49;16.80;99.90
32698;DHT22;19087;51.062;3.754;2023-05-07T03:07:15;16.90;99.90
32698;DHT22;19087;51.062;3.754;2023-05-07T03:09:41;16.90;99.90
32698;DHT22;19087;51.062;3.754;2023-05-07T03:12:07;16.90;99.90
32698;DHT22;19087;51.062;3.754;2023-05-07T03:14:38;16.80;99.90
32698;DHT22;19087;51.062;3.754;2023-05-07T03:17:05;16.80;99.90
32698;DHT22;19087;51.062;3.754;2023-05-07T03:19:30;16.80;99.90
32698;DHT22;19087;51.062;3.754;2023-05-07T03:21:57;16.80;99.90
32698;DHT22;19087;51.062;3.754;2023-05-07T03:24:23;16.90;99.90
32698;DHT22;19087;51.062;3.754;2023-05-07T03:26:50;17.00;99.90
32698;DHT22;19087;51.062;3.754;2023-05-07T03:29:17;17.10;99.90
32698;DHT22;19087;51.062;3.754;2023-05-07T03:31:45;17.20;99.90
32698;DHT22;19087;51.062;3.754;2023-05-07T03:34:12;17.30;99.90
32698;DHT22;19087;51.062;3.754;2023-05-07T03:36:38;17.40;99.90
32698;DHT22;19087;51.062;3.754;2023-05-07T03:39:04;17.40;99.90
32698;DHT22;19087;51.062;3.754;2023-05-07T03:41:32;17.30;99.90
32698;DHT22;19087;51.062;3.754;2023-05-07T03:44:04;17.10;99.90
32698;DHT22;19087;51.062;3.754;2023-05-07T03:46:30;17.00;99.90
32698;DHT22;19087;51.062;3.754;2023-05-07T03:48:56;16.90;99.90
32698;DHT22;19087;51.062;3.754;2023-05-07T03:51:22;16.90;99.90
32698;DHT22;19087;51.062;3.754;2023-05-07T03:53:48;16.90;99.90
32698;DHT22;19087;51.062;3.754;2023-05-07T03:56:14;16.90;99.90
32698;DHT22;19087;51.062;3.754;2023-05-07T03:58:40;16.90;99.90
32698;DHT22;19087;51.062;3.754;2023-05-07T04:01:05;16.90;99.90
32698;DHT22;19087;51.062;3.754;2023-05-07T04:03:32;16.90;99.90
32698;DHT22;19087;51.062;3.754;2023-05-07T04:05:59;16.90;99.90
32698;DHT22;19087;51.062;3.754;2023-05-07T04:08:25;17.00;99.90
32698;DHT22;19087;51.062;3.754;2023-05-07T04:10:56;17.30;99.90
32698;DHT22;19087;51.062;3.754;2023-05-07T04:13:25;17.50;99.90
32698;DHT22;19087;51.062;3.754;2023-05-07T04:15:51;17.70;99.90
32698;DHT22;19087;51.062;3.754;2023-05-07T04:18:17;17.70;99.90
32698;DHT22;19087;51.062;3.754;2023-05-07T04:20:43;17.60;99.90
32698;DHT22;19087;51.062;3.754;2023-05-07T04:23:10;17.60;99.90
32698;DHT22;19087;51.062;3.754;2023-05-07T04:25:35;17.50;99.90
32698;DHT22;19087;51.062;3.754;2023-05-07T04:28:01;17.60;99.90
32698;DHT22;19087;51.062;3.754;2023-05-07T04:30:28;17.60;99.90
32698;DHT22;19087;51.062;3.754;2023-05-07T04:32:55;17.60;99.90
32698;DHT22;19087;51.062;3.754;2023-05-07T04:35:21;17.60;99.90
32698;DHT22;19087;51.062;3.754;2023-05-07T04:37:49;17.50;99.90
32698;DHT22;19087;51.062;3.754;2023-05-07T04:40:15;17.50;99.90
32698;DHT22;19087;51.062;3.754;2023-05-07T04:42:41;17.50;99.90
32698;DHT22;19087;51.062;3.754;2023-05-07T04:45:07;17.60;99.90
32698;DHT22;19087;51.062;3.754;2023-05-07T04:47:35;17.60;99.90
32698;DHT22;19087;51.062;3.754;2023-05-07T04:50:01;17.50;99.90
32698;DHT22;19087;51.062;3.754;2023-05-07T04:52:26;17.40;99.90
32698;DHT22;19087;51.062;3.754;2023-05-07T04:54:52;17.40;99.90
32698;DHT22;19087;51.062;3.754;2023-05-07T04:57:18;17.30;99.90
32698;DHT22;19087;51.062;3.754;2023-05-07T04:59:44;17.20;99.90
32698;DHT22;19087;51.062;3.754;2023-05-07T05:02:10;17.20;99.90
32698;DHT22;19087;51.062;3.754;2023-05-07T05:04:36;17.10;99.90
32698;DHT22;19087;51.062;3.754;2023-05-07T05:07:03;17.20;99.90
32698;DHT22;19087;51.062;3.754;2023-05-07T05:09:30;17.20;99.90
32698;DHT22;19087;51.062;3.754;2023-05-07T05:11:56;17.30;99.90
32698;DHT22;19087;51.062;3.754;2023-05-07T05:14:23;17.30;99.90
32698;DHT22;19087;51.062;3.754;2023-05-07T05:16:49;17.30;99.90
32698;DHT22;19087;51.062;3.754;2023-05-07T05:19:15;17.20;99.90
32698;DHT22;19087;51.062;3.754;2023-05-07T05:21:41;17.20;99.90
32698;DHT22;19087;51.062;3.754;2023-05-07T05:24:10;17.20;99.90
32698;DHT22;19087;51.062;3.754;2023-05-07T05:26:38;17.10;99.90
32698;DHT22;19087;51.062;3.754;2023-05-07T05:29:04;17.20;99.90
32698;DHT22;19087;51.062;3.754;2023-05-07T05:31:29;17.20;99.90
32698;DHT22;19087;51.062;3.754;2023-05-07T05:33:58;17.20;99.90
32698;DHT22;19087;51.062;3.754;2023-05-07T05:36:27;17.20;99.90
32698;DHT22;19087;51.062;3.754;2023-05-07T05:38:55;17.20;99.90
32698;DHT22;19087;51.062;3.754;2023-05-07T05:41:21;17.30;99.90
32698;DHT22;19087;51.062;3.754;2023-05-07T05:43:47;17.30;99.90
32698;DHT22;19087;51.062;3.754;2023-05-07T05:46:12;17.40;99.90
32698;DHT22;19087;51.062;3.754;2023-05-07T05:48:38;17.50;99.90
32698;DHT22;19087;51.062;3.754;2023-05-07T05:51:04;17.60;99.90
32698;DHT22;19087;51.062;3.754;2023-05-07T05:53:30;17.60;99.90
32698;DHT22;19087;51.062;3.754;2023-05-07T05:55:56;17.60;99.90
32698;DHT22;19087;51.062;3.754;2023-05-07T05:58:22;17.80;99.90
32698;DHT22;19087;51.062;3.754;2023-05-07T06:00:49;17.90;99.90
32698;DHT22;19087;51.062;3.754;2023-05-07T06:03:17;18.00;99.90
32698;DHT22;19087;51.062;3.754;2023-05-07T06:05:59;17.90;99.90
32698;DHT22;19087;51.062;3.754;2023-05-07T06:08:29;17.80;99.90
32698;DHT22;19087;51.062;3.754;2023-05-07T06:10:58;17.80;99.90
32698;DHT22;19087;51.062;3.754;2023-05-07T06:13:33;17.90;99.90
32698;DHT22;19087;51.062;3.754;2023-05-07T06:15:59;18.00;99.90
32698;DHT22;19087;51.062;3.754;2023-05-07T06:18:25;17.80;99.90
32698;DHT22;19087;51.062;3.754;2023-05-07T06:20:52;17.80;99.90
32698;DHT22;19087;51.062;3.754;2023-05-07T06:23:18;17.90;99.90
32698;DHT22;19087;51.062;3.754;2023-05-07T06:25:50;17.60;99.90
32698;DHT22;19087;51.062;3.754;2023-05-07T06:28:17;17.30;99.90
32698;DHT22;19087;51.062;3.754;2023-05-07T06:30:43;17.30;99.90
32698;DHT22;19087;51.062;3.754;2023-05-07T06:33:09;17.30;99.90
32698;DHT22;19087;51.062;3.754;2023-05-07T06:35:35;17.40;99.90
32698;DHT22;19087;51.062;3.754;2023-05-07T06:38:01;17.30;99.90
32698;DHT22;19087;51.062;3.754;2023-05-07T06:40:27;17.40;99.90
32698;DHT22;19087;51.062;3.754;2023-05-07T06:42:53;17.30;99.90
32698;DHT22;19087;51.062;3.754;2023-05-07T06:45:20;17.20;99.90
32698;DHT22;19087;51.062;3.754;2023-05-07T06:47:46;17.30;99.90
32698;DHT22;19087;51.062;3.754;2023-05-07T06:50:12;17.30;99.90
32698;DHT22;19087;51.062;3.754;2023-05-07T06:52:38;17.30;99.90
32698;DHT22;19087;51.062;3.754;2023-05-07T06:55:04;17.20;99.90
32698;DHT22;19087;51.062;3.754;2023-05-07T06:57:30;17.20;99.90
32698;DHT22;19087;51.062;3.754;2023-05-07T06:59:56;17.30;99.90
32698;DHT22;19087;51.062;3.754;2023-05-07T07:02:22;17.30;99.90
32698;DHT22;19087;51.062;3.754;2023-05-07T07:04:47;17.40;99.90
32698;DHT22;19087;51.062;3.754;2023-05-07T07:07:13;17.50;99.90
32698;DHT22;19087;51.062;3.754;2023-05-07T07:09:39;17.60;99.90
32698;DHT22;19087;51.062;3.754;2023-05-07T07:12:07;17.90;99.90
32698;DHT22;19087;51.062;3.754;2023-05-07T07:14:35;17.80;99.90
32698;DHT22;19087;51.062;3.754;2023-05-07T07:17:01;18.00;99.90
32698;DHT22;19087;51.062;3.754;2023-05-07T07:19:27;18.20;99.90
32698;DHT22;19087;51.062;3.754;2023-05-07T07:21:52;18.40;99.90
32698;DHT22;19087;51.062;3.754;2023-05-07T07:24:20;18.50;99.90
32698;DHT22;19087;51.062;3.754;2023-05-07T07:26:48;18.60;99.90
32698;DHT22;19087;51.062;3.754;2023-05-07T07:29:14;18.50;99.90
32698;DHT22;19087;51.062;3.754;2023-05-07T07:31:39;18.40;99.90
32698;DHT22;19087;51.062;3.754;2023-05-07T07:34:05;18.40;99.90
32698;DHT22;19087;51.062;3.754;2023-05-07T07:36:31;18.20;99.90
32698;DHT22;19087;51.062;3.754;2023-05-07T07:38:57;18.20;99.90
32698;DHT22;19087;51.062;3.754;2023-05-07T07:41:22;18.10;99.90
32698;DHT22;19087;51.062;3.754;2023-05-07T07:43:49;18.10;99.90
32698;DHT22;19087;51.062;3.754;2023-05-07T07:46:15;18.20;99.90
32698;DHT22;19087;51.062;3.754;2023-05-07T07:48:41;18.30;99.90
32698;DHT22;19087;51.062;3.754;2023-05-07T07:51:06;18.40;99.90
32698;DHT22;19087;51.062;3.754;2023-05-07T07:53:34;18.50;99.90
32698;DHT22;19087;51.062;3.754;2023-05-07T07:56:00;18.50;99.90
32698;DHT22;19087;51.062;3.754;2023-05-07T07:58:26;18.30;99.90
32698;DHT22;19087;51.062;3.754;2023-05-07T08:00:52;18.40;99.90
32698;DHT22;19087;51.062;3.754;2023-05-07T08:03:20;18.30;99.90
32698;DHT22;19087;51.062;3.754;2023-05-07T08:05:51;18.20;99.90
32698;DHT22;19087;51.062;3.754;2023-05-07T08:08:18;18.20;99.90
32698;DHT22;19087;51.062;3.754;2023-05-07T08:10:46;18.20;99.90
32698;DHT22;19087;51.062;3.754;2023-05-07T08:13:17;18.20;99.90
32698;DHT22;19087;51.062;3.754;2023-05-07T08:15:43;18.20;99.90
32698;DHT22;19087;51.062;3.754;2023-05-07T08:18:11;18.20;99.90
32698;DHT22;19087;51.062;3.754;2023-05-07T08:20:37;18.30;99.90
32698;DHT22;19087;51.062;3.754;2023-05-07T08:23:05;18.40;99.90
32698;DHT22;19087;51.062;3.754;2023-05-07T08:25:34;18.40;99.90
32698;DHT22;19087;51.062;3.754;2023-05-07T08:28:01;18.60;99.90
32698;DHT22;19087;51.062;3.754;2023-05-07T08:30:27;18.60;99.90
32698;DHT22;19087;51.062;3.754;2023-05-07T08:32:53;18.60;99.90
32698;DHT22;19087;51.062;3.754;2023-05-07T08:35:18;18.70;99.90
32698;DHT22;19087;51.062;3.754;2023-05-07T08:37:45;18.80;99.90
32698;DHT22;19087;51.062;3.754;2023-05-07T08:40:17;18.90;99.90
32698;DHT22;19087;51.062;3.754;2023-05-07T08:42:46;18.90;99.90
32698;DHT22;19087;51.062;3.754;2023-05-07T08:45:13;19.00;99.90
32698;DHT22;19087;51.062;3.754;2023-05-07T08:47:44;19.00;99.90
32698;DHT22;19087;51.062;3.754;2023-05-07T08:50:12;19.00;99.90
32698;DHT22;19087;51.062;3.754;2023-05-07T08:52:40;18.90;99.90
32698;DHT22;19087;51.062;3.754;2023-05-07T08:55:07;19.00;99.90
32698;DHT22;19087;51.062;3.754;2023-05-07T08:57:33;19.20;99.90
32698;DHT22;19087;51.062;3.754;2023-05-07T09:00:00;19.30;99.90
32698;DHT22;19087;51.062;3.754;2023-05-07T09:02:26;19.50;99.90
32698;DHT22;19087;51.062;3.754;2023-05-07T09:04:58;19.60;99.90
32698;DHT22;19087;51.062;3.754;2023-05-07T09:07:26;19.60;99.90
32698;DHT22;19087;51.062;3.754;2023-05-07T09:09:54;19.70;99.90
32698;DHT22;19087;51.062;3.754;2023-05-07T09:12:23;19.70;99.90
32698;DHT22;19087;51.062;3.754;2023-05-07T09:14:50;19.80;99.90
32698;DHT22;19087;51.062;3.754;2023-05-07T09:17:16;19.70;99.90
32698;DHT22;19087;51.062;3.754;2023-05-07T09:19:46;19.80;99.90
32698;DHT22;19087;51.062;3.754;2023-05-07T09:22:13;19.80;99.90
32698;DHT22;19087;51.062;3.754;2023-05-07T09:24:40;20.00;99.90
32698;DHT22;19087;51.062;3.754;2023-05-07T09:27:06;20.00;99.90
32698;DHT22;19087;51.062;3.754;2023-05-07T09:29:33;20.10;99.90
32698;DHT22;19087;51.062;3.754;2023-05-07T09:32:04;20.10;99.90
32698;DHT22;19087;51.062;3.754;2023-05-07T09:34:31;20.30;99.90
32698;DHT22;19087;51.062;3.754;2023-05-07T09:37:03;20.30;99.90
32698;DHT22;19087;51.062;3.754;2023-05-07T09:39:43;20.50;99.90
32698;DHT22;19087;51.062;3.754;2023-05-07T09:42:10;20.60;99.90
32698;DHT22;19087;51.062;3.754;2023-05-07T09:44:43;20.70;99.90
32698;DHT22;19087;51.062;3.754;2023-05-07T09:47:11;20.80;99.90
32698;DHT22;19087;51.062;3.754;2023-05-07T09:49:40;20.90;99.90
32698;DHT22;19087;51.062;3.754;2023-05-07T09:52:10;21.00;99.90
32698;DHT22;19087;51.062;3.754;2023-05-07T09:54:37;21.00;99.90
32698;DHT22;19087;51.062;3.754;2023-05-07T09:57:10;21.00;99.90
32698;DHT22;19087;51.062;3.754;2023-05-07T09:59:38;20.90;99.90
32698;DHT22;19087;51.062;3.754;2023-05-07T10:02:06;21.00;99.90
32698;DHT22;19087;51.062;3.754;2023-05-07T10:04:34;21.30;99.90
32698;DHT22;19087;51.062;3.754;2023-05-07T10:07:00;21.50;99.90
32698;DHT22;19087;51.062;3.754;2023-05-07T10:09:27;21.70;99.90
32698;DHT22;19087;51.062;3.754;2023-05-07T10:11:54;21.90;99.90
32698;DHT22;19087;51.062;3.754;2023-05-07T10:14:21;22.10;99.90
32698;DHT22;19087;51.062;3.754;2023-05-07T10:16:47;22.30;99.90
32698;DHT22;19087;51.062;3.754;2023-05-07T10:19:14;22.30;99.90
32698;DHT22;19087;51.062;3.754;2023-05-07T10:21:48;21.70;99.90
32698;DHT22;19087;51.062;3.754;2023-05-07T10:24:22;21.80;99.90
32698;DHT22;19087;51.062;3.754;2023-05-07T10:26:52;22.00;99.90
32698;DHT22;19087;51.062;3.754;2023-05-07T10:29:45;22.20;99.90
32698;DHT22;19087;51.062;3.754;2023-05-07T10:32:55;22.40;99.90
32698;DHT22;19087;51.062;3.754;2023-05-07T10:35:40;22.70;99.90
32698;DHT22;19087;51.062;3.754;2023-05-07T10:38:06;22.60;99.90
32698;DHT22;19087;51.062;3.754;2023-05-07T10:40:33;22.80;99.90
32698;DHT22;19087;51.062;3.754;2023-05-07T10:43:01;22.90;99.90
32698;DHT22;19087;51.062;3.754;2023-05-07T10:45:28;23.10;99.90
32698;DHT22;19087;51.062;3.754;2023-05-07T10:48:20;23.20;99.90
32698;DHT22;19087;51.062;3.754;2023-05-07T10:50:47;23.40;99.90
32698;DHT22;19087;51.062;3.754;2023-05-07T10:53:20;23.70;99.90
32698;DHT22;19087;51.062;3.754;2023-05-07T10:56:23;23.70;99.90
32698;DHT22;19087;51.062;3.754;2023-05-07T10:58:52;23.70;99.90
32698;DHT22;19087;51.062;3.754;2023-05-07T11:01:52;23.90;99.90
32698;DHT22;19087;51.062;3.754;2023-05-07T11:04:19;24.00;99.90
32698;DHT22;19087;51.062;3.754;2023-05-07T11:09:56;23.70;99.90
32698;DHT22;19087;51.062;3.754;2023-05-07T11:17:33;23.50;99.90
32698;DHT22;19087;51.062;3.754;2023-05-07T11:20:14;23.40;99.90
32698;DHT22;19087;51.062;3.754;2023-05-07T11:22:51;23.10;99.90
32698;DHT22;19087;51.062;3.754;2023-05-07T11:25:18;23.30;99.90
32698;DHT22;19087;51.062;3.754;2023-05-07T11:27:45;23.30;99.90
32698;DHT22;19087;51.062;3.754;2023-05-07T11:30:17;23.20;99.90
32698;DHT22;19087;51.062;3.754;2023-05-07T11:32:47;22.90;99.90
32698;DHT22;19087;51.062;3.754;2023-05-07T11:35:15;23.20;99.90
32698;DHT22;19087;51.062;3.754;2023-05-07T11:37:42;23.20;99.90
32698;DHT22;19087;51.062;3.754;2023-05-07T11:40:10;23.30;99.90
32698;DHT22;19087;51.062;3.754;2023-05-07T11:42:41;23.40;99.90
32698;DHT22;19087;51.062;3.754;2023-05-07T11:45:09;23.60;99.90
32698;DHT22;19087;51.062;3.754;2023-05-07T11:47:35;23.60;99.90
32698;DHT22;19087;51.062;3.754;2023-05-07T11:50:06;24.00;99.90
32698;DHT22;19087;51.062;3.754;2023-05-07T11:52:33;23.90;99.90
32698;DHT22;19087;51.062;3.754;2023-05-07T11:55:00;24.10;99.90
32698;DHT22;19087;51.062;3.754;2023-05-07T11:57:27;23.60;99.90
32698;DHT22;19087;51.062;3.754;2023-05-07T11:59:57;23.90;99.90
32698;DHT22;19087;51.062;3.754;2023-05-07T12:02:24;24.10;99.90
32698;DHT22;19087;51.062;3.754;2023-05-07T12:04:53;23.90;99.90
32698;DHT22;19087;51.062;3.754;2023-05-07T12:07:23;23.60;99.90
32698;DHT22;19087;51.062;3.754;2023-05-07T12:09:50;23.20;99.90
32698;DHT22;19087;51.062;3.754;2023-05-07T12:12:15;23.40;99.90
32698;DHT22;19087;51.062;3.754;2023-05-07T12:14:44;23.40;99.90
32698;DHT22;19087;51.062;3.754;2023-05-07T12:17:12;23.30;99.90
32698;DHT22;19087;51.062;3.754;2023-05-07T12:19:40;23.60;99.90
32698;DHT22;19087;51.062;3.754;2023-05-07T12:22:08;23.80;99.90
32698;DHT22;19087;51.062;3.754;2023-05-07T12:24:48;23.90;99.90
32698;DHT22;19087;51.062;3.754;2023-05-07T12:27:17;24.00;99.90
32698;DHT22;19087;51.062;3.754;2023-05-07T12:29:51;23.90;99.90
32698;DHT22;19087;51.062;3.754;2023-05-07T12:32:20;23.80;99.90
32698;DHT22;19087;51.062;3.754;2023-05-07T12:34:50;23.60;99.90
32698;DHT22;19087;51.062;3.754;2023-05-07T12:37:24;23.40;99.90
32698;DHT22;19087;51.062;3.754;2023-05-07T12:40:06;23.50;99.90
32698;DHT22;19087;51.062;3.754;2023-05-07T12:42:40;23.40;99.90
32698;DHT22;19087;51.062;3.754;2023-05-07T12:45:11;23.40;99.90
32698;DHT22;19087;51.062;3.754;2023-05-07T12:47:46;23.30;99.90
32698;DHT22;19087;51.062;3.754;2023-05-07T12:50:17;23.70;99.90
32698;DHT22;19087;51.062;3.754;2023-05-07T12:52:45;24.00;99.90
32698;DHT22;19087;51.062;3.754;2023-05-07T12:55:17;23.90;99.90
32698;DHT22;19087;51.062;3.754;2023-05-07T12:57:53;23.60;99.90
32698;DHT22;19087;51.062;3.754;2023-05-07T13:00:38;23.60;99.90
32698;DHT22;19087;51.062;3.754;2023-05-07T13:03:05;23.90;99.90
32698;DHT22;19087;51.062;3.754;2023-05-07T13:05:33;24.10;99.90
32698;DHT22;19087;51.062;3.754;2023-05-07T13:08:00;24.60;99.90
32698;DHT22;19087;51.062;3.754;2023-05-07T13:10:27;24.90;99.90
32698;DHT22;19087;51.062;3.754;2023-05-07T13:12:53;25.00;99.90
32698;DHT22;19087;51.062;3.754;2023-05-07T13:15:19;25.00;99.90
32698;DHT22;19087;51.062;3.754;2023-05-07T13:17:46;24.70;99.90
32698;DHT22;19087;51.062;3.754;2023-05-07T13:20:15;24.20;99.90
32698;DHT22;19087;51.062;3.754;2023-05-07T13:22:41;24.40;99.90
32698;DHT22;19087;51.062;3.754;2023-05-07T13:25:07;24.50;99.90
32698;DHT22;19087;51.062;3.754;2023-05-07T13:27:35;24.50;99.90
32698;DHT22;19087;51.062;3.754;2023-05-07T13:30:06;24.40;99.90
32698;DHT22;19087;51.062;3.754;2023-05-07T13:32:32;24.80;99.90
32698;DHT22;19087;51.062;3.754;2023-05-07T13:35:00;25.10;99.90
32698;DHT22;19087;51.062;3.754;2023-05-07T13:37:27;24.50;99.90
32698;DHT22;19087;51.062;3.754;2023-05-07T13:39:53;24.60;99.90
32698;DHT22;19087;51.062;3.754;2023-05-07T13:42:18;24.80;99.90
32698;DHT22;19087;51.062;3.754;2023-05-07T13:44:49;25.00;99.90
32698;DHT22;19087;51.062;3.754;2023-05-07T13:47:19;25.40;99.90
32698;DHT22;19087;51.062;3.754;2023-05-07T13:49:47;25.60;99.90
32698;DHT22;19087;51.062;3.754;2023-05-07T13:52:15;24.50;99.90
32698;DHT22;19087;51.062;3.754;2023-05-07T13:54:42;24.50;99.90
32698;DHT22;19087;51.062;3.754;2023-05-07T13:57:10;24.00;99.90
32698;DHT22;19087;51.062;3.754;2023-05-07T13:59:38;23.70;99.90
32698;DHT22;19087;51.062;3.754;2023-05-07T14:02:11;23.70;99.90
32698;DHT22;19087;51.062;3.754;2023-05-07T14:04:38;23.60;99.90
32698;DHT22;19087;51.062;3.754;2023-05-07T14:07:04;23.50;99.90
32698;DHT22;19087;51.062;3.754;2023-05-07T14:09:29;23.10;99.90
32698;DHT22;19087;51.062;3.754;2023-05-07T14:11:56;22.70;99.90
32698;DHT22;19087;51.062;3.754;2023-05-07T14:14:21;22.60;99.90
32698;DHT22;19087;51.062;3.754;2023-05-07T14:16:47;22.40;99.90
32698;DHT22;19087;51.062;3.754;2023-05-07T14:19:13;22.50;99.90
32698;DHT22;19087;51.062;3.754;2023-05-07T14:21:39;22.20;99.90
32698;DHT22;19087;51.062;3.754;2023-05-07T14:24:07;22.40;99.90
32698;DHT22;19087;51.062;3.754;2023-05-07T14:26:34;22.50;99.90
32698;DHT22;19087;51.062;3.754;2023-05-07T14:29:00;22.40;99.90
32698;DHT22;19087;51.062;3.754;2023-05-07T14:31:26;22.10;99.90
32698;DHT22;19087;51.062;3.754;2023-05-07T14:33:54;21.70;99.90
32698;DHT22;19087;51.062;3.754;2023-05-07T14:36:20;21.70;99.90
32698;DHT22;19087;51.062;3.754;2023-05-07T14:38:47;21.70;99.90
32698;DHT22;19087;51.062;3.754;2023-05-07T14:41:14;21.70;99.90
32698;DHT22;19087;51.062;3.754;2023-05-07T14:43:41;21.60;99.90
32698;DHT22;19087;51.062;3.754;2023-05-07T14:46:07;21.60;99.90
32698;DHT22;19087;51.062;3.754;2023-05-07T14:48:34;21.60;99.90
32698;DHT22;19087;51.062;3.754;2023-05-07T14:51:00;21.50;99.90
32698;DHT22;19087;51.062;3.754;2023-05-07T14:53:28;21.40;99.90
32698;DHT22;19087;51.062;3.754;2023-05-07T14:55:54;21.40;99.90
32698;DHT22;19087;51.062;3.754;2023-05-07T14:58:20;21.40;99.90
32698;DHT22;19087;51.062;3.754;2023-05-07T15:00:46;21.60;99.90
32698;DHT22;19087;51.062;3.754;2023-05-07T15:03:14;21.50;99.90
32698;DHT22;19087;51.062;3.754;2023-05-07T15:05:40;21.60;99.90
32698;DHT22;19087;51.062;3.754;2023-05-07T15:08:07;21.80;99.90
32698;DHT22;19087;51.062;3.754;2023-05-07T15:10:38;22.00;99.90
32698;DHT22;19087;51.062;3.754;2023-05-07T15:13:11;22.10;99.90
32698;DHT22;19087;51.062;3.754;2023-05-07T15:15:42;22.20;99.90
32698;DHT22;19087;51.062;3.754;2023-05-07T15:18:09;22.40;99.90
32698;DHT22;19087;51.062;3.754;2023-05-07T15:20:36;22.50;99.90
32698;DHT22;19087;51.062;3.754;2023-05-07T15:23:02;22.60;99.90
32698;DHT22;19087;51.062;3.754;2023-05-07T15:25:31;22.70;99.90
32698;DHT22;19087;51.062;3.754;2023-05-07T15:27:59;22.60;99.90
32698;DHT22;19087;51.062;3.754;2023-05-07T15:30:24;22.70;99.90
32698;DHT22;19087;51.062;3.754;2023-05-07T15:32:50;22.70;99.90
32698;DHT22;19087;51.062;3.754;2023-05-07T15:35:19;22.00;99.90
32698;DHT22;19087;51.062;3.754;2023-05-07T15:37:50;21.70;99.90
32698;DHT22;19087;51.062;3.754;2023-05-07T15:40:20;21.50;99.90
32698;DHT22;19087;51.062;3.754;2023-05-07T15:42:46;21.50;99.90